createdAt,value
2019-03-17T00:01:22.054Z,6.89
2019-03-17T00:03:53.110Z,6.85
2019-03-17T00:06:24.169Z,6.81
2019-03-17T00:08:55.310Z,6.85
2019-03-17T00:11:26.489Z,6.78
2019-03-17T00:13:57.535Z,6.78
2019-03-17T00:16:28.606Z,6.80
2019-03-17T00:18:59.650Z,6.83
2019-03-17T00:21:30.779Z,6.86
2019-03-17T00:24:02.690Z,6.89
2019-03-17T00:26:36.225Z,6.91
2019-03-17T00:29:07.306Z,6.91
2019-03-17T00:31:39.312Z,6.93
2019-03-17T00:34:10.303Z,6.93
2019-03-17T00:36:41.414Z,6.90
2019-03-17T00:39:12.540Z,6.83
2019-03-17T00:41:43.681Z,6.81
2019-03-17T00:44:14.761Z,6.84
2019-03-17T00:46:46.678Z,6.88
2019-03-17T00:49:17.710Z,6.85
2019-03-17T00:51:48.813Z,6.86
2019-03-17T00:54:19.930Z,6.83
2019-03-17T00:56:51.030Z,6.84
2019-03-17T00:59:22.058Z,6.79
2019-03-17T01:01:53.934Z,6.79
2019-03-17T01:04:25.300Z,6.79
2019-03-17T01:06:56.319Z,6.81
2019-03-17T01:09:27.702Z,6.80
2019-03-17T01:11:58.858Z,6.80
2019-03-17T01:14:29.827Z,6.83
2019-03-17T01:17:01.398Z,6.85
2019-03-17T01:19:32.473Z,6.92
2019-03-17T01:22:03.628Z,6.92
2019-03-17T01:24:34.715Z,6.91
2019-03-17T01:27:05.766Z,6.89
2019-03-17T01:29:36.971Z,6.89
2019-03-17T01:32:07.943Z,6.85
2019-03-17T01:34:38.975Z,6.91
2019-03-17T01:37:10.098Z,6.93
2019-03-17T01:39:41.051Z,6.91
2019-03-17T01:42:12.069Z,6.94
2019-03-17T01:44:43.185Z,6.96
2019-03-17T01:47:14.221Z,6.95
2019-03-17T01:49:45.227Z,6.95
2019-03-17T01:52:16.238Z,6.93
2019-03-17T01:54:47.326Z,6.99
2019-03-17T01:57:18.489Z,7.03
2019-03-17T01:59:49.559Z,7.07
2019-03-17T02:02:20.704Z,7.10
2019-03-17T02:04:51.677Z,7.09
2019-03-17T02:07:27.299Z,7.16
2019-03-17T02:09:58.378Z,7.17
2019-03-17T02:12:29.375Z,7.15
2019-03-17T02:15:00.444Z,7.19
2019-03-17T02:17:31.405Z,7.21
2019-03-17T02:20:02.524Z,7.20
2019-03-17T02:22:33.545Z,7.26
2019-03-17T02:25:06.387Z,7.23
2019-03-17T02:27:37.381Z,7.26
2019-03-17T02:30:11.440Z,7.30
2019-03-17T02:32:42.440Z,7.24
2019-03-17T02:35:13.504Z,7.31
2019-03-17T02:37:45.085Z,7.37
2019-03-17T02:40:16.103Z,7.39
2019-03-17T02:42:47.366Z,7.41
2019-03-17T02:45:18.418Z,7.42
2019-03-17T02:47:49.611Z,7.37
2019-03-17T02:50:21.195Z,7.39
2019-03-17T02:52:52.412Z,7.43
2019-03-17T02:55:23.426Z,7.46
2019-03-17T02:57:54.398Z,7.46
2019-03-17T03:00:25.726Z,7.52
2019-03-17T03:02:56.811Z,7.53
2019-03-17T03:05:28.067Z,7.56
2019-03-17T03:07:59.078Z,7.59
2019-03-17T03:10:32.128Z,7.64
2019-03-17T03:13:03.488Z,7.67
2019-03-17T03:15:34.698Z,7.66
2019-03-17T03:18:05.645Z,7.64
2019-03-17T03:20:36.716Z,7.69
2019-03-17T03:23:09.954Z,7.75
2019-03-17T03:25:41.076Z,7.76
2019-03-17T03:28:12.161Z,7.78
2019-03-17T03:30:43.223Z,7.81
2019-03-17T03:33:14.348Z,7.84
2019-03-17T03:35:45.390Z,7.87
2019-03-17T03:38:18.568Z,7.90
2019-03-17T03:40:50.537Z,7.91
2019-03-17T03:43:21.794Z,7.91
2019-03-17T03:45:52.895Z,7.96
2019-03-17T03:48:24.031Z,8.02
2019-03-17T03:50:55.034Z,8.05
2019-03-17T03:53:26.659Z,8.08
2019-03-17T03:56:00.369Z,8.11
2019-03-17T03:58:31.416Z,8.15
2019-03-17T04:01:02.390Z,8.18
2019-03-17T04:03:33.547Z,8.18
2019-03-17T04:06:05.121Z,8.24
2019-03-17T04:08:36.265Z,8.25
2019-03-17T04:11:07.426Z,8.30
2019-03-17T04:13:38.432Z,8.33
2019-03-17T04:16:09.470Z,8.31
2019-03-17T04:18:40.499Z,8.30
2019-03-17T04:21:11.540Z,8.32
2019-03-17T04:23:42.494Z,8.30
2019-03-17T04:26:14.555Z,8.31
2019-03-17T04:28:45.595Z,8.26
2019-03-17T04:31:16.701Z,8.29
2019-03-17T04:33:48.353Z,8.27
2019-03-17T04:36:19.436Z,8.32
2019-03-17T04:38:50.626Z,8.34
2019-03-17T04:41:21.740Z,8.30
2019-03-17T04:43:52.800Z,8.35
2019-03-17T04:46:23.809Z,8.38
2019-03-17T04:48:55.206Z,8.41
2019-03-17T04:51:27.308Z,8.43
2019-03-17T04:53:58.407Z,8.46
2019-03-17T04:56:29.500Z,8.45
2019-03-17T04:59:00.587Z,8.48
2019-03-17T05:01:31.631Z,8.51
2019-03-17T05:04:02.724Z,8.57
2019-03-17T05:06:33.868Z,8.58
2019-03-17T05:09:06.652Z,8.64
2019-03-17T05:11:37.905Z,8.67
2019-03-17T05:14:09.615Z,8.70
2019-03-17T05:16:40.690Z,8.70
2019-03-17T05:19:11.776Z,8.73
2019-03-17T05:21:42.916Z,8.78
2019-03-17T05:24:14.062Z,8.79
2019-03-17T05:26:45.606Z,8.80
2019-03-17T05:29:17.076Z,8.80
2019-03-17T05:31:48.771Z,8.82
2019-03-17T05:34:20.820Z,8.75
2019-03-17T05:37:05.020Z,8.81
2019-03-17T05:39:24.550Z,8.83
2019-03-17T05:41:57.012Z,8.86
2019-03-17T05:44:28.134Z,8.89
2019-03-17T05:46:59.167Z,8.80
2019-03-17T05:49:30.266Z,8.89
2019-03-17T05:52:02.095Z,8.94
2019-03-17T05:54:33.631Z,8.98
2019-03-17T06:00:26.580Z,9.04
2019-03-17T06:03:23.242Z,9.06
2019-03-17T06:06:13.045Z,9.08
2019-03-17T06:08:50.005Z,9.09
2019-03-17T06:11:26.102Z,9.06
2019-03-17T06:13:58.727Z,9.08
2019-03-17T06:16:29.835Z,9.12
2019-03-17T06:19:03.387Z,9.11
2019-03-17T06:21:34.778Z,9.15
2019-03-17T06:24:05.836Z,9.24
2019-03-17T06:26:37.187Z,9.27
2019-03-17T06:29:08.333Z,9.27
2019-03-17T06:31:39.357Z,9.22
2019-03-17T06:34:10.494Z,9.31
2019-03-17T06:36:41.661Z,9.35
2019-03-17T06:39:15.450Z,9.38
2019-03-17T06:41:46.491Z,9.43
2019-03-17T06:44:17.549Z,9.46
2019-03-17T06:46:48.673Z,9.42
2019-03-17T06:49:19.778Z,9.45
2019-03-17T06:51:51.041Z,9.48
2019-03-17T06:54:23.367Z,9.43
2019-03-17T06:56:54.350Z,9.41
2019-03-17T06:59:26.409Z,9.51
2019-03-17T07:01:57.435Z,9.52
2019-03-17T07:04:28.633Z,9.52
2019-03-17T07:06:59.669Z,9.54
2019-03-17T07:09:30.835Z,9.47
2019-03-17T07:12:01.966Z,9.57
2019-03-17T07:14:33.850Z,9.53
2019-03-17T07:17:05.090Z,9.60
2019-03-17T07:19:36.827Z,9.64
2019-03-17T07:22:07.846Z,9.62
2019-03-17T07:24:38.968Z,9.67
2019-03-17T07:27:10.126Z,9.68
2019-03-17T07:29:43.697Z,9.65
2019-03-17T07:32:14.846Z,9.73
2019-03-17T07:34:46.059Z,9.76
2019-03-17T07:37:22.357Z,9.77
2019-03-17T07:39:53.477Z,9.83
2019-03-17T07:42:24.447Z,9.90
2019-03-17T07:44:56.881Z,9.98
2019-03-17T07:47:27.985Z,9.98
2019-03-17T07:49:59.526Z,10.02
2019-03-17T07:52:31.822Z,10.09
2019-03-17T07:55:02.931Z,10.15
2019-03-17T07:57:34.086Z,10.09
2019-03-17T08:00:15.920Z,10.21
2019-03-17T08:02:47.010Z,10.27
2019-03-17T08:05:18.167Z,10.29
2019-03-17T08:07:49.136Z,10.37
2019-03-17T08:10:20.346Z,10.38
2019-03-17T08:12:51.461Z,10.36
2019-03-17T08:15:23.481Z,10.42
2019-03-17T08:17:54.565Z,10.38
2019-03-17T08:20:25.774Z,10.32
2019-03-17T08:22:56.885Z,10.38
2019-03-17T08:25:28.038Z,10.46
2019-03-17T08:27:59.195Z,10.48
2019-03-17T08:30:31.101Z,10.50
2019-03-17T08:33:03.792Z,10.55
2019-03-17T08:35:34.965Z,10.53
2019-03-17T08:38:22.069Z,10.63
2019-03-17T08:41:10.269Z,10.64
2019-03-17T08:44:24.190Z,10.66
2019-03-17T08:50:12.856Z,10.78
2019-03-17T08:56:01.026Z,10.81
2019-03-17T08:58:32.262Z,10.79
2019-03-17T09:01:04.724Z,10.86
2019-03-17T09:07:15.125Z,10.93
2019-03-17T09:10:25.708Z,10.99
2019-03-17T09:16:30.153Z,10.98
2019-03-17T09:29:58.794Z,11.23
2019-03-17T09:40:09.770Z,11.40
2019-03-17T09:46:22.589Z,11.55
2019-03-17T10:10:02.519Z,12.51
2019-03-17T10:16:17.586Z,12.62
2019-03-17T10:19:06.942Z,12.71
2019-03-17T10:25:17.616Z,12.66
2019-03-17T10:28:35.366Z,12.74
2019-03-17T10:31:46.997Z,12.69
2019-03-17T10:34:49.630Z,12.84
2019-03-17T10:53:46.422Z,13.02
2019-03-17T11:06:10.479Z,13.28
2019-03-17T11:12:49.917Z,13.72
2019-03-17T11:16:04.600Z,13.91
2019-03-17T11:29:50.005Z,14.29
2019-03-17T11:36:49.163Z,14.22
2019-03-17T12:06:48.451Z,14.28
2019-03-17T12:15:39.554Z,14.30
2019-03-17T12:18:43.844Z,14.36
2019-03-17T12:24:47.343Z,14.25
2019-03-17T12:31:15.017Z,14.43
2019-03-17T12:37:18.553Z,14.36
2019-03-17T12:40:43.002Z,14.32
2019-03-17T12:54:16.112Z,14.33
2019-03-17T13:10:43.945Z,14.26
2019-03-17T13:13:59.749Z,14.30
2019-03-17T13:17:42.592Z,14.14
2019-03-17T14:04:53.915Z,13.43
2019-03-17T14:10:47.310Z,13.34
2019-03-17T14:20:02.980Z,13.05
2019-03-17T14:23:41.891Z,12.87
2019-03-17T14:26:37.790Z,12.70
2019-03-17T14:32:00.923Z,12.70
2019-03-17T14:34:44.774Z,12.62
2019-03-17T14:37:32.808Z,12.63
2019-03-17T14:40:25.648Z,12.63
2019-03-17T14:46:08.626Z,12.54
2019-03-17T14:48:10.347Z,12.56
2019-03-17T14:48:48.243Z,12.52
2019-03-17T14:51:19.302Z,12.42
2019-03-17T14:53:51.487Z,12.47
2019-03-17T14:56:23.296Z,12.48
2019-03-17T14:58:54.731Z,12.41
2019-03-17T15:01:28.702Z,12.36
2019-03-17T15:03:59.942Z,12.41
2019-03-17T15:06:31.174Z,12.42
2019-03-17T15:09:03.345Z,12.39
2019-03-17T15:11:34.465Z,12.43
2019-03-17T15:14:05.848Z,12.38
2019-03-17T15:16:37.324Z,12.38
2019-03-17T15:19:10.036Z,12.29
2019-03-17T15:21:41.411Z,12.25
2019-03-17T15:24:13.507Z,12.23
2019-03-17T15:26:44.967Z,12.19
2019-03-17T15:29:16.276Z,12.17
2019-03-17T15:31:47.628Z,12.08
2019-03-17T15:34:20.138Z,12.09
2019-03-17T15:36:51.441Z,11.99
2019-03-17T15:39:22.786Z,11.98
2019-03-17T15:41:55.129Z,11.95
2019-03-17T15:44:26.727Z,11.92
2019-03-17T15:46:59.889Z,11.88
2019-03-17T15:49:31.822Z,11.84
2019-03-17T15:52:03.319Z,11.82
2019-03-17T15:54:34.726Z,11.89
2019-03-17T15:57:09.070Z,11.85
2019-03-17T15:59:42.956Z,11.85
2019-03-17T16:02:14.248Z,11.74
2019-03-17T16:04:45.521Z,11.75
2019-03-17T16:07:42.314Z,11.56
2019-03-17T16:10:33.748Z,10.89
2019-03-17T16:13:41.286Z,10.63
2019-03-17T16:16:21.733Z,10.34
2019-03-17T16:19:08.817Z,10.09
2019-03-17T16:25:08.132Z,9.94
2019-03-17T16:28:01.528Z,9.73
2019-03-17T16:33:17.400Z,9.52
2019-03-17T16:36:03.516Z,9.38
2019-03-17T16:38:46.657Z,9.27
2019-03-17T16:41:42.621Z,9.17
2019-03-17T16:44:22.133Z,9.09
2019-03-17T16:47:10.869Z,9.07
2019-03-17T16:50:14.006Z,9.04
2019-03-17T16:52:36.707Z,9.03
2019-03-17T16:55:28.915Z,9.03
2019-03-17T16:58:21.437Z,9.00
2019-03-17T17:01:06.450Z,8.99
2019-03-17T17:03:59.718Z,8.98
2019-03-17T17:07:24.891Z,8.96
2019-03-17T17:10:00.665Z,8.90
2019-03-17T17:15:33.764Z,8.81
2019-03-17T17:20:53.352Z,8.75
2019-03-17T17:23:41.455Z,8.74
2019-03-17T17:26:37.398Z,8.73
2019-03-17T17:29:44.004Z,8.66
2019-03-17T17:35:32.184Z,8.55
2019-03-17T17:38:32.760Z,8.55
2019-03-17T17:41:51.373Z,8.54
2019-03-17T17:45:02.101Z,8.45
2019-03-17T17:47:50.654Z,8.37
2019-03-17T17:53:38.173Z,8.27
2019-03-17T18:03:13.333Z,8.26
2019-03-17T18:05:56.637Z,7.90
2019-03-17T19:12:26.030Z,9.13
2019-03-17T19:19:49.670Z,8.60
2019-03-17T20:11:30.851Z,7.64
2019-03-17T21:51:21.570Z,7.53
2019-03-17T21:56:32.636Z,7.46
2019-03-17T22:02:55.115Z,7.48
2019-03-17T22:03:05.892Z,7.47
2019-03-17T22:06:03.138Z,7.51
2019-03-17T22:33:21.883Z,7.66
2019-03-17T22:47:15.569Z,7.37
2019-03-17T22:53:02.660Z,7.27
2019-03-17T22:59:03.832Z,7.23
2019-03-17T23:02:02.191Z,7.12
2019-03-17T23:08:25.346Z,7.05
2019-03-17T23:27:33.648Z,6.93
2019-03-17T23:30:42.732Z,6.90
2019-03-17T23:33:27.642Z,6.88
2019-03-17T23:39:36.013Z,6.88
2019-03-17T23:55:22.045Z,6.75
2019-03-17T23:58:18.524Z,6.77
